Time;durP1;ratioP1;P1;durP2;ratioP2;P2;SDS_P1;SDS_P2;PMS_P1;PMS_P2;Temp;Humidity;BMP_temperature;BMP_pressure;BME280_temperature;BME280_humidity;BME280_pressure;Samples;Min_cycle;Max_cycle;Signal;HPM_P1;HPM_P2
2023/06/28 00:01:04;;;;;;;;;;;15.40;99.90;;;;;;5074831;28;19965;-72
2023/06/28 00:03:30;;;;;;;;;;;15.40;99.90;;;;;;5074784;28;20020;-71
2023/06/28 00:05:56;;;;;;;;;;;15.40;99.90;;;;;;5074626;28;19916;-69
2023/06/28 00:08:22;;;;;;;;;;;15.40;99.90;;;;;;5074009;28;19923;-72
2023/06/28 00:10:49;;;;;;;;;;;15.40;99.90;;;;;;5074176;28;19944;-69
2023/06/28 00:13:14;;;;;;;;;;;15.50;99.90;;;;;;5074245;28;20196;-76
2023/06/28 00:15:40;;;;;;;;;;;15.50;99.90;;;;;;5055276;28;20007;-70
2023/06/28 00:18:08;;;;;;;;;;;15.50;99.90;;;;;;5069960;28;19939;-69
2023/06/28 00:20:34;;;;;;;;;;;15.40;99.90;;;;;;5072516;28;19952;-73
2023/06/28 00:22:59;;;;;;;;;;;15.40;99.90;;;;;;5071391;28;19959;-72
2023/06/28 00:25:25;;;;;;;;;;;15.40;99.90;;;;;;5074431;28;19912;-70
2023/06/28 00:27:50;;;;;;;;;;;15.30;99.90;;;;;;5073945;28;20020;-69
2023/06/28 00:30:17;;;;;;;;;;;15.30;99.90;;;;;;5074309;28;19939;-75
2023/06/28 00:32:42;;;;;;;;;;;15.20;99.90;;;;;;5055439;28;19966;-72
2023/06/28 00:35:08;;;;;;;;;;;15.20;99.90;;;;;;5074450;28;19917;-69
2023/06/28 00:37:33;;;;;;;;;;;15.20;99.90;;;;;;5073397;28;19916;-73
2023/06/28 00:40:00;;;;;;;;;;;15.20;99.90;;;;;;5072674;28;19999;-71
2023/06/28 00:42:26;;;;;;;;;;;15.30;99.90;;;;;;5073549;28;19912;-69
2023/06/28 00:44:51;;;;;;;;;;;15.30;99.90;;;;;;5073344;28;19920;-71
2023/06/28 00:47:18;;;;;;;;;;;15.30;99.90;;;;;;5074645;28;19912;-73
2023/06/28 00:49:44;;;;;;;;;;;15.30;99.90;;;;;;5074217;28;19908;-74
2023/06/28 00:52:11;;;;;;;;;;;15.30;99.90;;;;;;5055132;28;20295;-71
2023/06/28 00:54:36;;;;;;;;;;;15.20;99.90;;;;;;5072043;28;19912;-72
2023/06/28 00:57:03;;;;;;;;;;;15.20;99.90;;;;;;5059471;28;20199;-70
2023/06/28 00:59:29;;;;;;;;;;;15.20;99.90;;;;;;5079056;28;19921;-69
2023/06/28 01:01:55;;;;;;;;;;;15.30;99.90;;;;;;5078405;28;19909;-69
2023/06/28 01:04:20;;;;;;;;;;;15.20;99.90;;;;;;5075708;28;20493;-75
2023/06/28 01:06:51;;;;;;;;;;;15.30;99.90;;;;;;5077724;28;20428;-69
2023/06/28 01:09:18;;;;;;;;;;;15.30;99.90;;;;;;5078289;28;19912;-70
2023/06/28 01:11:45;;;;;;;;;;;15.30;99.90;;;;;;5076644;28;20003;-72
2023/06/28 01:14:11;;;;;;;;;;;15.30;99.90;;;;;;5076303;28;19913;-69
2023/06/28 01:16:37;;;;;;;;;;;15.30;99.90;;;;;;5076304;28;20374;-76
2023/06/28 01:19:05;;;;;;;;;;;15.20;99.90;;;;;;5076835;28;19955;-68
2023/06/28 01:21:33;;;;;;;;;;;15.20;99.90;;;;;;5077306;28;19913;-70
2023/06/28 01:24:02;;;;;;;;;;;15.20;99.90;;;;;;5076263;28;19966;-74
2023/06/28 01:26:28;;;;;;;;;;;15.20;99.90;;;;;;5077124;28;19916;-69
2023/06/28 01:28:54;;;;;;;;;;;15.10;99.90;;;;;;5076754;28;19913;-69
2023/06/28 01:31:20;;;;;;;;;;;15.10;99.90;;;;;;5077821;28;19970;-68
2023/06/28 01:33:48;;;;;;;;;;;15.10;99.90;;;;;;5077437;28;20265;-72
2023/06/28 01:36:13;;;;;;;;;;;15.10;99.90;;;;;;5076577;28;19912;-70
2023/06/28 01:38:39;;;;;;;;;;;15.10;99.90;;;;;;5076681;28;19917;-72
2023/06/28 01:41:06;;;;;;;;;;;15.10;99.90;;;;;;5058724;28;20184;-69
2023/06/28 01:43:31;;;;;;;;;;;15.10;99.90;;;;;;5076752;28;19916;-72
2023/06/28 01:45:58;;;;;;;;;;;15.00;99.90;;;;;;5076385;28;20315;-69
2023/06/28 01:48:24;;;;;;;;;;;15.00;99.90;;;;;;5074798;28;19923;-68
2023/06/28 01:50:50;;;;;;;;;;;15.00;99.90;;;;;;5069647;28;20445;-70
2023/06/28 01:53:17;;;;;;;;;;;15.00;99.90;;;;;;5059323;28;20027;-68
2023/06/28 01:55:42;;;;;;;;;;;15.00;99.90;;;;;;5077372;28;19966;-68
2023/06/28 01:58:08;;;;;;;;;;;15.00;99.90;;;;;;5076523;28;19960;-68
2023/06/28 02:00:34;;;;;;;;;;;15.00;99.90;;;;;;5076982;28;20007;-70
2023/06/28 02:02:59;;;;;;;;;;;15.00;99.90;;;;;;5076981;28;20410;-70
2023/06/28 02:05:25;;;;;;;;;;;14.90;99.90;;;;;;5072658;28;20306;-73
2023/06/28 02:07:51;;;;;;;;;;;14.90;99.90;;;;;;5074172;28;20053;-78
2023/06/28 02:10:18;;;;;;;;;;;14.90;99.90;;;;;;5077242;28;19915;-70
2023/06/28 02:12:43;;;;;;;;;;;14.90;99.90;;;;;;5076766;28;19908;-73
2023/06/28 02:15:10;;;;;;;;;;;14.80;99.90;;;;;;5074856;28;19936;-73
2023/06/28 02:17:36;;;;;;;;;;;14.80;99.90;;;;;;5076468;28;19916;-70
2023/06/28 02:20:04;;;;;;;;;;;14.80;99.90;;;;;;5076069;28;19916;-72
2023/06/28 02:22:30;;;;;;;;;;;14.80;99.90;;;;;;5057991;28;20223;-77
2023/06/28 02:24:55;;;;;;;;;;;14.80;99.90;;;;;;5075911;28;19913;-69
2023/06/28 02:27:21;;;;;;;;;;;14.80;99.90;;;;;;5076144;28;19917;-75
2023/06/28 02:29:47;;;;;;;;;;;14.70;99.90;;;;;;5075426;28;19926;-70
2023/06/28 02:32:13;;;;;;;;;;;14.70;99.90;;;;;;5073643;28;20012;-73
2023/06/28 02:34:39;;;;;;;;;;;14.70;99.90;;;;;;5071760;28;19912;-78
2023/06/28 02:37:05;;;;;;;;;;;14.70;99.90;;;;;;5058799;28;19958;-71
2023/06/28 02:39:30;;;;;;;;;;;14.70;99.90;;;;;;5056918;28;19958;-75
2023/06/28 02:41:56;;;;;;;;;;;14.70;99.90;;;;;;5074145;28;19916;-72
2023/06/28 02:44:22;;;;;;;;;;;14.70;99.90;;;;;;5075066;28;19908;-75
2023/06/28 02:46:47;;;;;;;;;;;14.80;99.90;;;;;;5075707;28;19917;-71
2023/06/28 02:49:13;;;;;;;;;;;14.80;99.90;;;;;;5076099;28;19916;-75
2023/06/28 02:51:39;;;;;;;;;;;14.90;99.90;;;;;;5075831;28;19920;-71
2023/06/28 02:54:04;;;;;;;;;;;14.90;99.90;;;;;;5075191;28;19961;-78
2023/06/28 02:56:30;;;;;;;;;;;14.90;99.90;;;;;;5075214;28;19912;-73
2023/06/28 02:58:56;;;;;;;;;;;14.90;99.90;;;;;;5073128;28;19978;-74
2023/06/28 03:01:22;;;;;;;;;;;14.90;99.90;;;;;;5056679;28;20334;-72
2023/06/28 03:03:48;;;;;;;;;;;14.90;99.90;;;;;;5055952;28;20296;-70
2023/06/28 03:06:14;;;;;;;;;;;14.90;99.90;;;;;;5047954;28;19948;-76
2023/06/28 03:08:41;;;;;;;;;;;15.00;99.90;;;;;;5075892;28;20534;-70
2023/06/28 03:11:06;;;;;;;;;;;14.90;99.90;;;;;;5075806;28;19913;-69
2023/06/28 03:13:33;;;;;;;;;;;14.90;99.90;;;;;;5073830;28;19913;-70
2023/06/28 03:15:59;;;;;;;;;;;15.00;99.90;;;;;;5048201;28;19916;-69
2023/06/28 03:18:24;;;;;;;;;;;14.90;99.90;;;;;;5055620;28;19920;-74
2023/06/28 03:20:50;;;;;;;;;;;15.00;99.90;;;;;;5075706;28;19948;-75
2023/06/28 03:23:16;;;;;;;;;;;15.00;99.90;;;;;;5073136;28;19955;-77
2023/06/28 03:25:42;;;;;;;;;;;15.00;99.90;;;;;;5074155;28;20357;-70
2023/06/28 03:28:07;;;;;;;;;;;15.00;99.90;;;;;;5075403;28;20346;-69
2023/06/28 03:30:33;;;;;;;;;;;15.10;99.90;;;;;;5075016;28;19965;-69
2023/06/28 03:32:59;;;;;;;;;;;15.00;99.90;;;;;;5073765;28;19920;-77
2023/06/28 03:35:25;;;;;;;;;;;15.00;99.90;;;;;;5069026;28;19913;-69
2023/06/28 03:37:51;;;;;;;;;;;15.00;99.90;;;;;;5075056;28;19913;-69
2023/06/28 03:40:16;;;;;;;;;;;15.00;99.90;;;;;;5073841;28;20315;-76
2023/06/28 03:42:42;;;;;;;;;;;15.00;99.90;;;;;;5073929;28;19912;-70
2023/06/28 03:45:08;;;;;;;;;;;15.00;99.90;;;;;;5073268;28;19916;-73
2023/06/28 03:47:34;;;;;;;;;;;15.00;99.90;;;;;;5074999;28;20242;-77
2023/06/28 03:50:00;;;;;;;;;;;15.00;99.90;;;;;;5056544;28;19983;-70
2023/06/28 03:52:25;;;;;;;;;;;15.00;99.90;;;;;;5069717;28;19923;-78
2023/06/28 03:54:52;;;;;;;;;;;15.00;99.90;;;;;;5074836;28;20211;-74
2023/06/28 03:57:20;;;;;;;;;;;15.00;99.90;;;;;;5074148;28;19919;-68
2023/06/28 03:59:46;;;;;;;;;;;15.00;99.90;;;;;;5056658;28;19924;-76
2023/06/28 04:02:12;;;;;;;;;;;15.00;99.90;;;;;;5074803;28;20345;-68
2023/06/28 04:04:37;;;;;;;;;;;15.00;99.90;;;;;;5073179;28;20006;-68
2023/06/28 04:07:03;;;;;;;;;;;15.00;99.90;;;;;;5073451;28;19912;-69
2023/06/28 04:09:29;;;;;;;;;;;15.00;99.90;;;;;;5074860;28;19948;-68
2023/06/28 04:11:55;;;;;;;;;;;15.00;99.90;;;;;;5074921;28;19915;-68
2023/06/28 04:14:22;;;;;;;;;;;15.00;99.90;;;;;;5074247;28;19956;-69
2023/06/28 04:16:48;;;;;;;;;;;15.00;99.90;;;;;;5072450;28;19912;-69
2023/06/28 04:19:13;;;;;;;;;;;15.00;99.90;;;;;;5074875;28;20361;-69
2023/06/28 04:21:39;;;;;;;;;;;15.00;99.90;;;;;;5074649;28;19919;-77
2023/06/28 04:24:05;;;;;;;;;;;15.00;99.90;;;;;;5075050;28;19915;-69
2023/06/28 04:26:31;;;;;;;;;;;15.00;99.90;;;;;;5071634;28;20019;-71
2023/06/28 04:28:57;;;;;;;;;;;15.00;99.90;;;;;;5074555;28;20003;-73
2023/06/28 04:31:24;;;;;;;;;;;15.00;99.90;;;;;;5078084;28;19947;-68
2023/06/28 04:33:51;;;;;;;;;;;15.00;99.90;;;;;;5078296;28;20280;-68
2023/06/28 04:36:21;;;;;;;;;;;15.00;99.90;;;;;;5070186;28;20010;-70
2023/06/28 04:38:52;;;;;;;;;;;15.00;99.90;;;;;;5071433;28;19920;-73
2023/06/28 04:41:19;;;;;;;;;;;15.00;99.90;;;;;;5077399;28;19916;-69
2023/06/28 04:43:45;;;;;;;;;;;15.00;99.90;;;;;;5077941;28;20484;-68
2023/06/28 04:46:11;;;;;;;;;;;15.10;99.90;;;;;;5078155;28;19916;-69
2023/06/28 04:48:41;;;;;;;;;;;15.10;99.90;;;;;;5078460;28;19912;-68
2023/06/28 04:51:07;;;;;;;;;;;15.10;99.90;;;;;;5073747;28;20177;-69
2023/06/28 04:53:33;;;;;;;;;;;15.10;99.90;;;;;;5078403;28;19909;-70
2023/06/28 04:56:00;;;;;;;;;;;15.10;99.90;;;;;;5078312;28;19920;-68
2023/06/28 04:58:26;;;;;;;;;;;15.10;99.90;;;;;;5078218;28;20227;-75
2023/06/28 05:00:51;;;;;;;;;;;15.10;99.90;;;;;;5058580;28;19916;-69
2023/06/28 05:03:17;;;;;;;;;;;15.20;99.90;;;;;;5075634;28;19956;-76
2023/06/28 05:05:43;;;;;;;;;;;15.10;99.90;;;;;;5078008;28;20203;-68
2023/06/28 05:08:09;;;;;;;;;;;15.20;99.90;;;;;;5076958;28;19919;-68
2023/06/28 05:10:36;;;;;;;;;;;15.20;99.90;;;;;;5076354;28;20007;-77
2023/06/28 05:13:01;;;;;;;;;;;15.20;99.90;;;;;;5077000;28;19978;-67
2023/06/28 05:15:32;;;;;;;;;;;15.30;99.90;;;;;;5077398;28;19916;-70
2023/06/28 05:17:58;;;;;;;;;;;15.30;99.90;;;;;;5075603;28;19916;-69
2023/06/28 05:20:24;;;;;;;;;;;15.30;99.90;;;;;;5076399;28;20322;-68
2023/06/28 05:22:49;;;;;;;;;;;15.40;99.90;;;;;;5076591;28;19913;-67
2023/06/28 05:25:16;;;;;;;;;;;15.40;99.90;;;;;;5077283;28;19954;-68
2023/06/28 05:27:42;;;;;;;;;;;15.40;99.90;;;;;;5077878;28;20000;-68
2023/06/28 05:30:08;;;;;;;;;;;15.50;99.90;;;;;;5076711;28;20015;-70
2023/06/28 05:32:34;;;;;;;;;;;15.50;99.90;;;;;;5043229;28;20003;-68
2023/06/28 05:35:05;;;;;;;;;;;15.60;99.90;;;;;;5057868;28;20373;-75
2023/06/28 05:37:31;;;;;;;;;;;15.60;99.90;;;;;;5052311;28;20188;-71
2023/06/28 05:39:57;;;;;;;;;;;15.60;99.90;;;;;;5076425;28;19998;-69
2023/06/28 05:42:23;;;;;;;;;;;15.70;99.90;;;;;;5058249;28;20337;-69
2023/06/28 05:44:49;;;;;;;;;;;15.70;99.90;;;;;;5077303;28;19995;-68
2023/06/28 05:47:15;;;;;;;;;;;15.80;99.90;;;;;;5075718;28;19920;-69
2023/06/28 05:49:42;;;;;;;;;;;15.80;99.90;;;;;;5075136;28;20007;-69
2023/06/28 05:52:08;;;;;;;;;;;15.90;99.90;;;;;;5077393;28;19919;-70
2023/06/28 05:54:34;;;;;;;;;;;16.00;99.90;;;;;;5077251;28;19909;-70
2023/06/28 05:57:00;;;;;;;;;;;16.00;99.90;;;;;;5076488;28;19973;-69
2023/06/28 05:59:25;;;;;;;;;;;16.00;99.90;;;;;;5039630;28;19921;-70
2023/06/28 06:01:51;;;;;;;;;;;16.00;99.90;;;;;;5036216;28;19913;-69
2023/06/28 06:04:18;;;;;;;;;;;16.00;99.90;;;;;;5035515;28;20321;-69
2023/06/28 06:06:43;;;;;;;;;;;16.00;99.90;;;;;;5037379;28;20004;-69
2023/06/28 06:09:09;;;;;;;;;;;16.00;99.90;;;;;;5035669;28;20026;-78
2023/06/28 06:11:36;;;;;;;;;;;16.10;99.90;;;;;;5034877;28;19921;-69
2023/06/28 06:14:01;;;;;;;;;;;16.10;99.90;;;;;;5031908;28;19928;-69
2023/06/28 06:16:27;;;;;;;;;;;16.20;99.90;;;;;;5036407;28;19917;-76
2023/06/28 06:18:53;;;;;;;;;;;16.20;99.90;;;;;;5036604;28;20318;-73
2023/06/28 06:21:18;;;;;;;;;;;16.30;99.90;;;;;;5035459;28;19913;-70
2023/06/28 06:23:44;;;;;;;;;;;16.30;99.90;;;;;;5036193;28;20307;-71
2023/06/28 06:26:09;;;;;;;;;;;16.30;99.90;;;;;;5034871;28;20011;-79
2023/06/28 06:28:35;;;;;;;;;;;16.30;99.90;;;;;;5032686;28;19917;-70
2023/06/28 06:31:01;;;;;;;;;;;16.30;99.90;;;;;;5035506;28;19917;-70
2023/06/28 06:33:26;;;;;;;;;;;16.30;99.90;;;;;;5035024;28;20384;-69
2023/06/28 06:35:52;;;;;;;;;;;16.40;99.90;;;;;;5036159;28;20215;-70
2023/06/28 06:38:18;;;;;;;;;;;16.40;99.90;;;;;;5036254;28;19952;-69
2023/06/28 06:40:45;;;;;;;;;;;16.40;99.90;;;;;;5036987;28;19913;-69
2023/06/28 06:43:10;;;;;;;;;;;16.40;99.90;;;;;;5036336;28;20312;-82
2023/06/28 06:45:36;;;;;;;;;;;16.40;99.90;;;;;;5036499;28;19988;-80
2023/06/28 06:48:02;;;;;;;;;;;16.40;99.90;;;;;;5035645;28;19913;-73
2023/06/28 06:50:27;;;;;;;;;;;16.40;99.90;;;;;;5036181;28;20329;-76
2023/06/28 06:52:53;;;;;;;;;;;16.40;99.90;;;;;;5035054;28;19916;-82
2023/06/28 06:55:19;;;;;;;;;;;16.40;99.90;;;;;;5035547;28;19909;-79
2023/06/28 06:57:44;;;;;;;;;;;16.40;99.90;;;;;;5040147;28;19917;-76
2023/06/28 07:00:10;;;;;;;;;;;16.40;99.90;;;;;;5075315;28;20069;-75
2023/06/28 07:02:36;;;;;;;;;;;16.50;99.90;;;;;;5075741;28;19999;-69
2023/06/28 07:05:05;;;;;;;;;;;16.40;99.90;;;;;;5075051;28;19995;-72
2023/06/28 07:07:30;;;;;;;;;;;16.50;99.90;;;;;;5075812;28;19908;-82
2023/06/28 07:09:56;;;;;;;;;;;16.50;99.90;;;;;;5074868;28;19991;-71
2023/06/28 07:12:22;;;;;;;;;;;16.60;99.90;;;;;;5075175;28;19913;-79
2023/06/28 07:14:49;;;;;;;;;;;16.60;99.90;;;;;;5074215;28;19916;-70
2023/06/28 07:17:14;;;;;;;;;;;16.70;99.90;;;;;;5074715;28;20223;-85
2023/06/28 07:19:40;;;;;;;;;;;16.70;99.90;;;;;;5057631;28;19909;-72
2023/06/28 07:22:06;;;;;;;;;;;16.70;99.90;;;;;;5075544;28;19958;-69
2023/06/28 07:24:31;;;;;;;;;;;16.70;99.90;;;;;;5073475;28;19923;-73
2023/06/28 07:26:57;;;;;;;;;;;16.70;99.90;;;;;;5057083;28;19923;-80
2023/06/28 07:29:24;;;;;;;;;;;16.70;99.90;;;;;;5075655;28;19912;-84
2023/06/28 07:31:50;;;;;;;;;;;16.70;99.90;;;;;;5076141;28;19912;-69
2023/06/28 07:34:16;;;;;;;;;;;16.70;99.90;;;;;;5056878;28;19981;-77
2023/06/28 07:36:41;;;;;;;;;;;16.70;99.90;;;;;;5074621;28;20246;-69
2023/06/28 07:39:09;;;;;;;;;;;16.70;99.90;;;;;;5074352;28;19974;-79
2023/06/28 07:41:35;;;;;;;;;;;16.80;99.90;;;;;;5074449;28;19908;-74
2023/06/28 07:44:00;;;;;;;;;;;16.70;99.90;;;;;;5072889;28;19915;-76
2023/06/28 07:46:26;;;;;;;;;;;16.70;99.90;;;;;;5072710;28;19999;-78
2023/06/28 07:48:52;;;;;;;;;;;16.80;99.90;;;;;;5055375;28;19916;-72
2023/06/28 07:51:18;;;;;;;;;;;16.70;99.90;;;;;;5074473;28;19912;-69
2023/06/28 07:53:45;;;;;;;;;;;16.70;99.90;;;;;;5074798;28;19908;-70
2023/06/28 07:56:12;;;;;;;;;;;16.70;99.90;;;;;;5055112;28;19921;-71
2023/06/28 07:58:38;;;;;;;;;;;16.70;99.90;;;;;;5070718;28;19924;-73
2023/06/28 08:01:04;;;;;;;;;;;16.80;99.90;;;;;;5055411;28;20274;-69
2023/06/28 08:03:30;;;;;;;;;;;16.80;99.90;;;;;;5073794;28;19919;-73
2023/06/28 08:05:55;;;;;;;;;;;16.80;99.90;;;;;;5055592;28;20409;-69
2023/06/28 08:08:21;;;;;;;;;;;16.80;99.90;;;;;;5074474;28;19912;-69
2023/06/28 08:10:48;;;;;;;;;;;16.80;99.90;;;;;;5074773;28;19915;-78
2023/06/28 08:13:14;;;;;;;;;;;16.90;99.90;;;;;;5056230;28;19908;-69
2023/06/28 08:15:40;;;;;;;;;;;16.90;99.90;;;;;;5074782;28;19908;-70
2023/06/28 08:18:09;;;;;;;;;;;16.80;99.90;;;;;;5074729;28;20007;-68
2023/06/28 08:20:35;;;;;;;;;;;16.90;99.90;;;;;;5074877;28;19954;-69
2023/06/28 08:23:03;;;;;;;;;;;17.00;99.90;;;;;;5075122;28;19908;-71
2023/06/28 08:25:28;;;;;;;;;;;17.00;99.90;;;;;;5056237;28;19922;-69
2023/06/28 08:27:54;;;;;;;;;;;17.00;99.90;;;;;;5074901;28;19909;-69
2023/06/28 08:30:20;;;;;;;;;;;17.10;99.90;;;;;;5074981;28;19932;-68
2023/06/28 08:32:46;;;;;;;;;;;17.10;99.90;;;;;;5074354;28;20562;-77
2023/06/28 08:35:13;;;;;;;;;;;17.20;99.90;;;;;;5053489;28;19913;-70
2023/06/28 08:37:39;;;;;;;;;;;17.20;99.90;;;;;;5072450;28;19912;-68
2023/06/28 08:40:06;;;;;;;;;;;17.20;99.90;;;;;;5074544;28;19912;-70
2023/06/28 08:42:37;;;;;;;;;;;17.20;99.90;;;;;;5074582;28;20222;-72
2023/06/28 08:45:04;;;;;;;;;;;17.30;99.90;;;;;;5056793;28;19953;-76
2023/06/28 08:47:32;;;;;;;;;;;17.40;99.90;;;;;;5074587;28;19994;-76
2023/06/28 08:49:58;;;;;;;;;;;17.40;99.90;;;;;;5074573;28;19962;-72
2023/06/28 08:52:25;;;;;;;;;;;17.30;99.90;;;;;;5074383;28;19909;-73
2023/06/28 08:54:53;;;;;;;;;;;17.40;99.90;;;;;;5073786;28;20053;-71
2023/06/28 08:57:20;;;;;;;;;;;17.40;99.90;;;;;;5074084;28;19966;-70
2023/06/28 08:59:46;;;;;;;;;;;17.40;99.90;;;;;;5072271;28;19920;-70
2023/06/28 09:02:15;;;;;;;;;;;17.50;99.90;;;;;;5073763;28;19934;-76
2023/06/28 09:04:41;;;;;;;;;;;17.50;99.90;;;;;;5054234;28;19970;-78
2023/06/28 09:07:07;;;;;;;;;;;17.60;99.90;;;;;;5073993;28;19908;-77
2023/06/28 09:09:35;;;;;;;;;;;17.70;99.90;;;;;;5071821;28;19935;-69
2023/06/28 09:12:01;;;;;;;;;;;17.80;99.90;;;;;;5073872;28;20004;-76
2023/06/28 09:14:27;;;;;;;;;;;17.80;99.90;;;;;;5074517;28;19912;-68
2023/06/28 09:16:53;;;;;;;;;;;17.80;99.90;;;;;;5056189;28;19913;-68
2023/06/28 09:19:20;;;;;;;;;;;17.90;99.90;;;;;;5078153;28;19913;-69
2023/06/28 09:21:45;;;;;;;;;;;18.00;99.90;;;;;;5076516;28;19919;-76
2023/06/28 09:24:12;;;;;;;;;;;18.20;99.90;;;;;;5077609;28;19913;-68
2023/06/28 09:26:41;;;;;;;;;;;18.30;99.90;;;;;;5077861;28;19912;-71
2023/06/28 09:29:08;;;;;;;;;;;18.30;99.90;;;;;;5074557;28;19935;-74
2023/06/28 09:31:47;;;;;;;;;;;18.40;99.90;;;;;;5076196;28;19916;-68
2023/06/28 09:34:13;;;;;;;;;;;18.50;99.90;;;;;;5059370;28;19915;-74
2023/06/28 09:36:40;;;;;;;;;;;18.50;99.90;;;;;;5077575;28;19908;-70
2023/06/28 09:39:09;;;;;;;;;;;18.50;99.90;;;;;;5077217;28;19916;-71
2023/06/28 09:41:39;;;;;;;;;;;18.50;99.90;;;;;;5059045;28;19913;-67
2023/06/28 09:44:06;;;;;;;;;;;18.50;99.90;;;;;;5075968;28;19958;-73
2023/06/28 09:46:32;;;;;;;;;;;18.60;99.90;;;;;;5077790;28;19948;-73
2023/06/28 09:48:58;;;;;;;;;;;18.70;99.90;;;;;;5077390;28;20294;-72
2023/06/28 09:51:23;;;;;;;;;;;18.80;99.90;;;;;;5077122;28;19995;-74
2023/06/28 09:53:50;;;;;;;;;;;19.00;99.90;;;;;;5077321;28;20207;-72
2023/06/28 09:56:16;;;;;;;;;;;19.10;99.90;;;;;;5076884;28;19948;-76
2023/06/28 09:58:45;;;;;;;;;;;19.30;99.90;;;;;;5076548;28;19966;-73
2023/06/28 10:01:11;;;;;;;;;;;19.40;99.90;;;;;;5076619;28;19920;-72
2023/06/28 10:03:38;;;;;;;;;;;19.50;99.90;;;;;;5054179;28;19939;-71
2023/06/28 10:06:05;;;;;;;;;;;19.70;99.90;;;;;;5075237;28;19966;-69
2023/06/28 10:08:31;;;;;;;;;;;19.80;99.90;;;;;;5075932;28;20003;-68
2023/06/28 10:10:57;;;;;;;;;;;19.90;99.90;;;;;;5076867;28;19963;-69
2023/06/28 10:13:26;;;;;;;;;;;20.00;99.90;;;;;;5075619;28;19943;-69
2023/06/28 10:16:30;;;;;;;;;;;20.30;99.90;;;;;;5075936;28;19916;-70
2023/06/28 10:18:56;;;;;;;;;;;20.40;99.90;;;;;;4995146;28;20225;-71
2023/06/28 10:21:21;;;;;;;;;;;20.70;99.90;;;;;;4979210;28;19914;-73
2023/06/28 10:23:47;;;;;;;;;;;20.80;99.90;;;;;;4989479;28;20319;-76
2023/06/28 10:26:13;;;;;;;;;;;20.80;99.90;;;;;;4997894;28;19964;-68
2023/06/28 10:28:40;;;;;;;;;;;21.00;99.90;;;;;;4979689;28;19986;-69
2023/06/28 10:31:06;;;;;;;;;;;21.00;99.90;;;;;;4980246;28;19969;-75
2023/06/28 10:33:33;;;;;;;;;;;21.10;99.90;;;;;;4996446;28;19976;-76
2023/06/28 10:36:00;;;;;;;;;;;21.20;99.90;;;;;;4995276;28;19925;-75
2023/06/28 10:38:27;;;;;;;;;;;21.10;99.90;;;;;;4996716;28;19922;-68
2023/06/28 10:40:54;;;;;;;;;;;21.10;99.90;;;;;;5003673;28;19922;-68
2023/06/28 10:43:21;;;;;;;;;;;21.00;99.90;;;;;;4995184;28;19910;-73
2023/06/28 10:45:46;;;;;;;;;;;21.00;99.90;;;;;;4993551;28;19914;-76
2023/06/28 10:48:17;;;;;;;;;;;21.00;99.90;;;;;;4994634;28;19964;-75
2023/06/28 10:50:43;;;;;;;;;;;21.00;99.90;;;;;;5064759;28;19966;-76
2023/06/28 10:53:19;;;;;;;;;;;21.00;99.90;;;;;;5075747;28;19908;-75
2023/06/28 10:56:03;;;;;;;;;;;21.00;99.90;;;;;;5076127;28;19909;-72
2023/06/28 10:58:35;;;;;;;;;;;21.10;99.90;;;;;;5063483;28;19920;-74
2023/06/28 11:01:01;;;;;;;;;;;21.30;99.90;;;;;;5073676;28;19935;-72
2023/06/28 11:03:36;;;;;;;;;;;21.40;99.90;;;;;;5074856;28;20305;-74
2023/06/28 11:06:02;;;;;;;;;;;21.50;99.90;;;;;;5047217;28;19952;-75
2023/06/28 11:08:44;;;;;;;;;;;21.60;99.90;;;;;;5071758;28;20006;-74
2023/06/28 11:11:20;;;;;;;;;;;21.60;99.90;;;;;;5066471;28;19948;-69
2023/06/28 11:13:48;;;;;;;;;;;21.50;99.90;;;;;;5073058;28;19913;-70
2023/06/28 11:16:23;;;;;;;;;;;21.50;99.90;;;;;;5075250;28;19965;-69
2023/06/28 11:18:49;;;;;;;;;;;21.50;99.90;;;;;;5071092;28;19916;-68
2023/06/28 11:21:16;;;;;;;;;;;21.60;99.90;;;;;;5056666;28;19912;-77
2023/06/28 11:23:43;;;;;;;;;;;21.60;99.90;;;;;;5074066;28;19916;-73
2023/06/28 11:26:16;;;;;;;;;;;21.70;99.90;;;;;;5057720;28;19919;-69
2023/06/28 11:28:54;;;;;;;;;;;21.60;99.90;;;;;;5075143;28;20310;-76
2023/06/28 11:31:24;;;;;;;;;;;21.60;99.90;;;;;;5075425;28;19909;-69
2023/06/28 11:33:52;;;;;;;;;;;21.40;99.90;;;;;;5074676;28;19938;-70
2023/06/28 11:36:18;;;;;;;;;;;21.30;99.90;;;;;;5055260;28;19947;-75
2023/06/28 11:38:45;;;;;;;;;;;21.20;99.90;;;;;;5056613;28;19912;-75
2023/06/28 11:41:13;;;;;;;;;;;21.00;99.90;;;;;;5071335;28;19927;-82
2023/06/28 11:43:39;;;;;;;;;;;21.00;99.90;;;;;;5073817;28;19919;-75
2023/06/28 11:46:05;;;;;;;;;;;20.80;99.90;;;;;;5074674;28;20270;-76
2023/06/28 11:48:31;;;;;;;;;;;20.80;99.90;;;;;;5056928;28;19920;-72
2023/06/28 11:50:58;;;;;;;;;;;20.80;99.90;;;;;;5055502;28;20227;-75
2023/06/28 11:53:25;;;;;;;;;;;20.70;99.90;;;;;;5056596;28;19912;-76
2023/06/28 11:55:51;;;;;;;;;;;20.70;99.90;;;;;;5074310;28;19954;-69
2023/06/28 11:58:27;;;;;;;;;;;20.70;99.90;;;;;;5074512;28;19962;-76
2023/06/28 12:00:55;;;;;;;;;;;20.70;99.90;;;;;;5073459;28;20517;-67
2023/06/28 12:03:37;;;;;;;;;;;20.80;99.90;;;;;;5074241;28;19916;-76
2023/06/28 12:06:03;;;;;;;;;;;20.80;99.90;;;;;;5071865;28;19993;-76
2023/06/28 12:08:33;;;;;;;;;;;20.90;99.90;;;;;;5072325;28;20311;-75
2023/06/28 12:10:59;;;;;;;;;;;21.00;99.90;;;;;;5055063;28;19909;-76
2023/06/28 12:13:27;;;;;;;;;;;21.00;99.90;;;;;;5068817;28;21261;-75
2023/06/28 12:15:54;;;;;;;;;;;21.00;99.90;;;;;;5056369;28;19908;-77
2023/06/28 12:18:20;;;;;;;;;;;20.90;99.90;;;;;;5052924;28;19999;-76
2023/06/28 12:20:45;;;;;;;;;;;20.90;99.90;;;;;;5055036;28;20003;-75
2023/06/28 12:23:13;;;;;;;;;;;20.90;99.90;;;;;;5056483;28;20226;-71
2023/06/28 12:25:42;;;;;;;;;;;20.80;99.90;;;;;;5061876;28;19916;-75
2023/06/28 12:28:11;;;;;;;;;;;20.80;99.90;;;;;;5071484;28;20132;-75
2023/06/28 12:30:37;;;;;;;;;;;20.80;99.90;;;;;;5055674;28;19913;-75
2023/06/28 12:33:07;;;;;;;;;;;20.80;99.90;;;;;;5054162;28;19947;-76
2023/06/28 12:35:34;;;;;;;;;;;20.80;99.90;;;;;;5073720;28;19916;-75
2023/06/28 12:38:02;;;;;;;;;;;20.90;99.90;;;;;;5055159;28;19919;-70
2023/06/28 12:40:28;;;;;;;;;;;21.00;99.90;;;;;;5056470;28;19959;-70
2023/06/28 12:43:10;;;;;;;;;;;21.10;99.90;;;;;;5073308;28;19995;-73
2023/06/28 12:45:43;;;;;;;;;;;21.20;99.90;;;;;;5073289;28;19962;-77
2023/06/28 12:48:10;;;;;;;;;;;21.30;99.90;;;;;;5068949;28;19948;-76
2023/06/28 12:50:35;;;;;;;;;;;21.30;99.90;;;;;;5072923;28;19931;-70
2023/06/28 12:53:01;;;;;;;;;;;21.30;99.90;;;;;;5077276;28;20007;-76
2023/06/28 12:55:27;;;;;;;;;;;21.30;99.90;;;;;;5077348;28;20380;-69
2023/06/28 12:57:54;;;;;;;;;;;21.20;99.90;;;;;;5075996;28;19929;-76
2023/06/28 13:00:21;;;;;;;;;;;21.20;99.90;;;;;;5053443;28;19951;-74
2023/06/28 13:02:47;;;;;;;;;;;21.10;99.90;;;;;;5057470;28;19912;-76
2023/06/28 13:05:14;;;;;;;;;;;21.00;99.90;;;;;;5076388;28;19919;-76
2023/06/28 13:07:41;;;;;;;;;;;21.00;99.90;;;;;;5076678;28;19996;-76
2023/06/28 13:10:10;;;;;;;;;;;20.90;99.90;;;;;;5060214;28;20276;-74
2023/06/28 13:12:44;;;;;;;;;;;20.90;99.90;;;;;;5072283;28;20143;-73
2023/06/28 13:15:11;;;;;;;;;;;20.90;99.90;;;;;;5076627;28;19927;-72
2023/06/28 13:17:37;;;;;;;;;;;20.90;99.90;;;;;;5076531;28;19912;-73
2023/06/28 13:20:03;;;;;;;;;;;20.90;99.90;;;;;;5077029;28;19919;-73
2023/06/28 13:22:29;;;;;;;;;;;20.90;99.90;;;;;;5076973;28;19909;-69
2023/06/28 13:24:55;;;;;;;;;;;20.80;99.90;;;;;;5077194;28;19908;-76
2023/06/28 13:27:21;;;;;;;;;;;20.90;99.90;;;;;;5060009;28;19995;-76
2023/06/28 13:29:47;;;;;;;;;;;20.90;99.90;;;;;;5077752;28;20007;-77
2023/06/28 13:32:13;;;;;;;;;;;20.90;99.90;;;;;;5077076;28;20269;-76
2023/06/28 13:34:39;;;;;;;;;;;21.00;99.90;;;;;;5077551;28;20215;-68
2023/06/28 13:37:05;;;;;;;;;;;21.10;99.90;;;;;;5077446;28;19915;-69
2023/06/28 13:39:30;;;;;;;;;;;21.10;99.90;;;;;;5077116;28;19912;-68
2023/06/28 13:41:57;;;;;;;;;;;21.10;99.90;;;;;;5077408;28;19920;-77
2023/06/28 13:44:23;;;;;;;;;;;21.30;99.90;;;;;;5076986;28;19934;-70
2023/06/28 13:46:49;;;;;;;;;;;21.30;99.90;;;;;;5059538;28;19912;-75
2023/06/28 13:49:16;;;;;;;;;;;21.30;99.90;;;;;;5076884;28;20303;-75
2023/06/28 13:51:41;;;;;;;;;;;21.40;99.90;;;;;;5077380;28;20038;-75
2023/06/28 13:54:13;;;;;;;;;;;21.40;99.90;;;;;;5059015;28;20019;-75
2023/06/28 13:56:40;;;;;;;;;;;21.40;99.90;;;;;;5049816;28;19912;-75
2023/06/28 13:59:06;;;;;;;;;;;21.30;99.90;;;;;;5076528;28;19929;-77
2023/06/28 14:01:32;;;;;;;;;;;21.30;99.90;;;;;;5077204;28;20090;-71
2023/06/28 14:03:57;;;;;;;;;;;21.20;99.90;;;;;;5058049;28;19908;-70
2023/06/28 14:06:24;;;;;;;;;;;21.10;99.90;;;;;;5076957;28;19974;-74
2023/06/28 14:08:49;;;;;;;;;;;21.10;99.90;;;;;;5058989;28;20364;-74
2023/06/28 14:11:15;;;;;;;;;;;21.00;99.90;;;;;;5076944;28;19908;-76
2023/06/28 14:13:41;;;;;;;;;;;21.00;99.90;;;;;;5076840;28;20042;-69